sensor_id;sensor_type;location;lat;lon;timestamp;pressure;altitude;pressure_sealevel;temperature;humidity
41898;BME280;27576;53.366;-1.498;2023-03-25T00:01:00;97784.19;;;6.88;100.00
41898;BME280;27576;53.366;-1.498;2023-03-25T00:03:30;97800.31;;;7.01;100.00
41898;BME280;27576;53.366;-1.498;2023-03-25T00:05:58;97800.38;;;6.97;100.00
41898;BME280;27576;53.366;-1.498;2023-03-25T00:08:24;97792.63;;;7.00;100.00
41898;BME280;27576;53.366;-1.498;2023-03-25T00:10:57;97790.88;;;6.99;100.00
41898;BME280;27576;53.366;-1.498;2023-03-25T00:13:24;97762.88;;;6.80;100.00
41898;BME280;27576;53.366;-1.498;2023-03-25T00:15:52;97763.72;;;6.79;100.00
41898;BME280;27576;53.366;-1.498;2023-03-25T00:18:19;97813.09;;;7.06;100.00
41898;BME280;27576;53.366;-1.498;2023-03-25T00:20:45;97804.53;;;7.05;100.00
41898;BME280;27576;53.366;-1.498;2023-03-25T00:23:16;97758.59;;;6.78;100.00
41898;BME280;27576;53.366;-1.498;2023-03-25T00:25:42;97778.19;;;6.88;100.00
41898;BME280;27576;53.366;-1.498;2023-03-25T00:28:12;97810.63;;;7.00;100.00
41898;BME280;27576;53.366;-1.498;2023-03-25T00:30:38;97803.06;;;6.87;100.00
41898;BME280;27576;53.366;-1.498;2023-03-25T00:33:04;97803.06;;;6.87;100.00
41898;BME280;27576;53.366;-1.498;2023-03-25T00:35:31;97773.16;;;6.79;100.00
41898;BME280;27576;53.366;-1.498;2023-03-25T00:37:58;97787.88;;;6.72;100.00
41898;BME280;27576;53.366;-1.498;2023-03-25T00:40:28;97795.38;;;6.86;100.00
41898;BME280;27576;53.366;-1.498;2023-03-25T00:42:55;97786.97;;;6.73;100.00
41898;BME280;27576;53.366;-1.498;2023-03-25T00:45:21;97778.41;;;6.71;100.00
41898;BME280;27576;53.366;-1.498;2023-03-25T00:47:46;97764.75;;;6.69;100.00
41898;BME280;27576;53.366;-1.498;2023-03-25T00:50:12;97759.59;;;6.69;100.00
41898;BME280;27576;53.366;-1.498;2023-03-25T00:52:38;97790.25;;;6.83;100.00
41898;BME280;27576;53.366;-1.498;2023-03-25T00:55:04;97746.94;;;6.54;100.00
41898;BME280;27576;53.366;-1.498;2023-03-25T00:57:30;97774.22;;;6.64;100.00
41898;BME280;27576;53.366;-1.498;2023-03-25T00:59:56;97763.94;;;6.64;100.00
41898;BME280;27576;53.366;-1.498;2023-03-25T01:02:22;97755.47;;;6.56;100.00
41898;BME280;27576;53.366;-1.498;2023-03-25T01:04:48;97752.91;;;6.57;100.00
41898;BME280;27576;53.366;-1.498;2023-03-25T01:07:18;97783.50;;;6.76;100.00
41898;BME280;27576;53.366;-1.498;2023-03-25T01:09:45;97773.38;;;6.65;100.00
41898;BME280;27576;53.366;-1.498;2023-03-25T01:12:11;97780.06;;;6.77;100.00
41898;BME280;27576;53.366;-1.498;2023-03-25T01:14:36;97769.03;;;6.69;100.00
41898;BME280;27576;53.366;-1.498;2023-03-25T01:17:02;97767.16;;;6.78;100.00
41898;BME280;27576;53.366;-1.498;2023-03-25T01:19:27;97758.84;;;6.59;100.00
41898;BME280;27576;53.366;-1.498;2023-03-25T01:21:53;97784.31;;;6.79;100.00
41898;BME280;27576;53.366;-1.498;2023-03-25T01:24:18;97745.94;;;6.62;100.00
41898;BME280;27576;53.366;-1.498;2023-03-25T01:26:44;97757.91;;;6.67;100.00
41898;BME280;27576;53.366;-1.498;2023-03-25T01:29:11;97772.31;;;6.78;100.00
41898;BME280;27576;53.366;-1.498;2023-03-25T01:31:37;97751.22;;;6.53;100.00
41898;BME280;27576;53.366;-1.498;2023-03-25T01:34:03;97779.19;;;6.78;100.00
41898;BME280;27576;53.366;-1.498;2023-03-25T01:36:29;97784.31;;;6.79;100.00
41898;BME280;27576;53.366;-1.498;2023-03-25T01:38:55;97775.09;;;6.64;100.00
41898;BME280;27576;53.366;-1.498;2023-03-25T01:41:22;97787.88;;;6.72;100.00
41898;BME280;27576;53.366;-1.498;2023-03-25T01:44:02;97769.09;;;6.62;100.00
41898;BME280;27576;53.366;-1.498;2023-03-25T01:46:27;97809.22;;;6.76;100.00
41898;BME280;27576;53.366;-1.498;2023-03-25T01:48:53;97764.84;;;6.60;100.00
41898;BME280;27576;53.366;-1.498;2023-03-25T01:51:26;97703.72;;;6.15;100.00
41898;BME280;27576;53.366;-1.498;2023-03-25T01:53:53;97779.47;;;6.58;100.00
41898;BME280;27576;53.366;-1.498;2023-03-25T01:56:21;97790.50;;;6.66;100.00
41898;BME280;27576;53.366;-1.498;2023-03-25T01:58:50;97801.53;;;6.74;100.00
41898;BME280;27576;53.366;-1.498;2023-03-25T02:01:17;97804.16;;;6.73;100.00
41898;BME280;27576;53.366;-1.498;2023-03-25T02:03:49;97805.00;;;6.73;100.00
41898;BME280;27576;53.366;-1.498;2023-03-25T02:06:23;97834.38;;;6.57;100.00
41898;BME280;27576;53.366;-1.498;2023-03-25T02:08:53;97776.81;;;6.62;100.00
41898;BME280;27576;53.366;-1.498;2023-03-25T02:11:21;97776.16;;;6.50;100.00
41898;BME280;27576;53.366;-1.498;2023-03-25T02:13:46;97771.75;;;6.58;100.00
41898;BME280;27576;53.366;-1.498;2023-03-25T02:25:12;97808.34;;;6.78;100.00
41898;BME280;27576;53.366;-1.498;2023-03-25T02:41:26;97809.91;;;6.90;100.00
41898;BME280;27576;53.366;-1.498;2023-03-25T02:44:03;97787.78;;;6.75;100.00
41898;BME280;27576;53.366;-1.498;2023-03-25T02:46:30;97775.09;;;6.63;100.00
41898;BME280;27576;53.366;-1.498;2023-03-25T02:49:07;97773.41;;;6.62;100.00
41898;BME280;27576;53.366;-1.498;2023-03-25T02:52:06;97811.69;;;6.83;100.00
41898;BME280;27576;53.366;-1.498;2023-03-25T02:54:34;97793.06;;;6.66;100.00
41898;BME280;27576;53.366;-1.498;2023-03-25T02:57:04;97789.56;;;6.73;100.00
41898;BME280;27576;53.366;-1.498;2023-03-25T02:59:32;97786.94;;;6.76;100.00
41898;BME280;27576;53.366;-1.498;2023-03-25T03:02:04;97830.44;;;6.95;100.00
41898;BME280;27576;53.366;-1.498;2023-03-25T03:04:32;97811.53;;;6.97;100.00
41898;BME280;27576;53.366;-1.498;2023-03-25T03:06:57;97781.63;;;6.87;100.00
41898;BME280;27576;53.366;-1.498;2023-03-25T03:09:38;97799.53;;;6.96;100.00
41898;BME280;27576;53.366;-1.498;2023-03-25T03:18:22;97810.63;;;7.00;100.00
41898;BME280;27576;53.366;-1.498;2023-03-25T03:21:08;97799.63;;;6.88;100.00
41898;BME280;27576;53.366;-1.498;2023-03-25T03:23:46;97769.78;;;6.75;100.00
41898;BME280;27576;53.366;-1.498;2023-03-25T03:26:21;97813.13;;;7.03;100.00
41898;BME280;27576;53.366;-1.498;2023-03-25T03:31:34;97807.19;;;6.99;100.00
41898;BME280;27576;53.366;-1.498;2023-03-25T03:34:10;97789.34;;;6.88;100.00
41898;BME280;27576;53.366;-1.498;2023-03-25T03:36:47;97787.56;;;6.91;100.00
41898;BME280;27576;53.366;-1.498;2023-03-25T03:39:38;97819.13;;;7.03;100.00
41898;BME280;27576;53.366;-1.498;2023-03-25T03:42:34;97805.41;;;7.04;100.00
41898;BME280;27576;53.366;-1.498;2023-03-25T03:45:30;97811.41;;;7.03;100.00
41898;BME280;27576;53.366;-1.498;2023-03-25T03:48:01;97800.47;;;6.89;100.00
41898;BME280;27576;53.366;-1.498;2023-03-25T03:50:36;97816.81;;;6.88;100.00
41898;BME280;27576;53.366;-1.498;2023-03-25T03:53:09;97801.41;;;6.83;100.00
41898;BME280;27576;53.366;-1.498;2023-03-25T03:55:39;97845.81;;;7.01;100.00
41898;BME280;27576;53.366;-1.498;2023-03-25T03:58:10;97807.41;;;6.85;100.00
41898;BME280;27576;53.366;-1.498;2023-03-25T04:03:37;97849.19;;;7.03;100.00
41898;BME280;27576;53.366;-1.498;2023-03-25T04:09:23;97838.06;;;7.01;100.00
41898;BME280;27576;53.366;-1.498;2023-03-25T04:12:04;97813.47;;;6.81;100.00
41898;BME280;27576;53.366;-1.498;2023-03-25T04:14:31;97825.47;;;6.81;100.00
41898;BME280;27576;53.366;-1.498;2023-03-25T04:16:57;97843.53;;;6.78;100.00
41898;BME280;27576;53.366;-1.498;2023-03-25T04:19:24;97834.00;;;6.84;100.00
41898;BME280;27576;53.366;-1.498;2023-03-25T04:21:50;97851.13;;;6.88;100.00
41898;BME280;27576;53.366;-1.498;2023-03-25T04:24:16;97860.50;;;6.91;100.00
41898;BME280;27576;53.366;-1.498;2023-03-25T04:26:44;97862.06;;;7.03;100.00
41898;BME280;27576;53.366;-1.498;2023-03-25T04:29:09;97855.53;;;6.80;100.00
41898;BME280;27576;53.366;-1.498;2023-03-25T04:31:35;97827.44;;;6.62;100.00
41898;BME280;27576;53.366;-1.498;2023-03-25T04:34:01;97859.97;;;6.66;100.00
41898;BME280;27576;53.366;-1.498;2023-03-25T04:36:29;97901.22;;;6.60;100.00
41898;BME280;27576;53.366;-1.498;2023-03-25T04:39:01;97882.50;;;6.49;100.00
41898;BME280;27576;53.366;-1.498;2023-03-25T04:41:27;97845.84;;;6.30;100.00
41898;BME280;27576;53.366;-1.498;2023-03-25T04:43:52;97897.94;;;6.47;100.00
41898;BME280;27576;53.366;-1.498;2023-03-25T04:46:18;97887.75;;;6.38;100.00
41898;BME280;27576;53.366;-1.498;2023-03-25T04:48:44;97891.19;;;6.35;100.00
41898;BME280;27576;53.366;-1.498;2023-03-25T04:51:13;97920.38;;;6.34;100.00
41898;BME280;27576;53.366;-1.498;2023-03-25T04:53:40;97885.25;;;6.30;100.00
41898;BME280;27576;53.366;-1.498;2023-03-25T04:56:09;97894.06;;;6.05;100.00
41898;BME280;27576;53.366;-1.498;2023-03-25T04:58:40;97929.00;;;6.29;100.00
41898;BME280;27576;53.366;-1.498;2023-03-25T05:01:06;97941.88;;;6.24;100.00
41898;BME280;27576;53.366;-1.498;2023-03-25T05:03:35;97923.13;;;6.13;100.00
41898;BME280;27576;53.366;-1.498;2023-03-25T05:06:04;97918.97;;;6.03;100.00
41898;BME280;27576;53.366;-1.498;2023-03-25T05:08:30;97945.41;;;6.17;100.00
41898;BME280;27576;53.366;-1.498;2023-03-25T05:10:55;97974.44;;;6.30;100.00
41898;BME280;27576;53.366;-1.498;2023-03-25T05:13:20;97966.69;;;6.31;100.00
41898;BME280;27576;53.366;-1.498;2023-03-25T05:15:46;97966.69;;;6.31;100.00
41898;BME280;27576;53.366;-1.498;2023-03-25T05:18:14;97939.50;;;6.04;100.00
41898;BME280;27576;53.366;-1.498;2023-03-25T05:20:42;97959.94;;;6.21;100.00
41898;BME280;27576;53.366;-1.498;2023-03-25T05:23:11;97977.84;;;6.30;100.00
41898;BME280;27576;53.366;-1.498;2023-03-25T05:25:42;97967.59;;;6.27;100.00
41898;BME280;27576;53.366;-1.498;2023-03-25T05:28:08;97965.03;;;6.26;100.00
41898;BME280;27576;53.366;-1.498;2023-03-25T05:30:41;97972.78;;;6.20;100.00
41898;BME280;27576;53.366;-1.498;2023-03-25T05:33:08;97947.19;;;6.07;100.00
41898;BME280;27576;53.366;-1.498;2023-03-25T05:35:35;97975.50;;;6.04;100.00
41898;BME280;27576;53.366;-1.498;2023-03-25T05:38:00;97980.63;;;6.07;100.00
41898;BME280;27576;53.366;-1.498;2023-03-25T05:40:26;98007.88;;;6.27;100.00
41898;BME280;27576;53.366;-1.498;2023-03-25T05:42:52;98013.94;;;6.20;100.00
41898;BME280;27576;53.366;-1.498;2023-03-25T05:45:19;98016.44;;;6.30;100.00
41898;BME280;27576;53.366;-1.498;2023-03-25T05:47:45;98013.06;;;6.25;100.00
41898;BME280;27576;53.366;-1.498;2023-03-25T05:50:11;98017.41;;;6.15;100.00
41898;BME280;27576;53.366;-1.498;2023-03-25T05:52:38;98040.38;;;6.35;100.00
41898;BME280;27576;53.366;-1.498;2023-03-25T05:55:08;98020.84;;;6.18;100.00
41898;BME280;27576;53.366;-1.498;2023-03-25T05:57:34;98025.03;;;6.26;100.00
41898;BME280;27576;53.366;-1.498;2023-03-25T06:00:00;98034.47;;;6.24;100.00
41898;BME280;27576;53.366;-1.498;2023-03-25T06:02:28;97985.00;;;5.96;100.00
41898;BME280;27576;53.366;-1.498;2023-03-25T06:04:54;98062.66;;;6.36;100.00
41898;BME280;27576;53.366;-1.498;2023-03-25T06:07:19;98058.38;;;6.38;100.00
41898;BME280;27576;53.366;-1.498;2023-03-25T06:09:49;98063.38;;;6.52;100.00
41898;BME280;27576;53.366;-1.498;2023-03-25T06:12:19;98083.88;;;6.64;100.00
41898;BME280;27576;53.366;-1.498;2023-03-25T06:14:46;98048.91;;;6.42;100.00
41898;BME280;27576;53.366;-1.498;2023-03-25T06:17:13;98088.16;;;6.64;100.00
41898;BME280;27576;53.366;-1.498;2023-03-25T06:19:39;98086.47;;;6.60;100.00
41898;BME280;27576;53.366;-1.498;2023-03-25T06:22:08;98083.97;;;6.54;100.00
41898;BME280;27576;53.366;-1.498;2023-03-25T06:24:37;98104.47;;;6.60;100.00
41898;BME280;27576;53.366;-1.498;2023-03-25T06:27:04;98119.03;;;6.69;100.00
41898;BME280;27576;53.366;-1.498;2023-03-25T06:29:35;98124.16;;;6.70;100.00
41898;BME280;27576;53.366;-1.498;2023-03-25T06:32:02;98119.81;;;6.74;100.00
41898;BME280;27576;53.366;-1.498;2023-03-25T06:34:27;98113.84;;;6.70;100.00
41898;BME280;27576;53.366;-1.498;2023-03-25T06:36:53;98130.13;;;6.74;100.00
41898;BME280;27576;53.366;-1.498;2023-03-25T06:39:19;98107.06;;;6.64;100.00
41898;BME280;27576;53.366;-1.498;2023-03-25T06:41:45;98133.53;;;6.77;100.00
41898;BME280;27576;53.366;-1.498;2023-03-25T06:44:11;98113.09;;;6.56;100.00
41898;BME280;27576;53.366;-1.498;2023-03-25T06:46:37;98127.63;;;6.66;100.00
41898;BME280;27576;53.366;-1.498;2023-03-25T06:49:02;98111.34;;;6.59;100.00
41898;BME280;27576;53.366;-1.498;2023-03-25T06:51:27;98142.16;;;6.70;100.00
41898;BME280;27576;53.366;-1.498;2023-03-25T06:53:53;98144.72;;;6.73;100.00
41898;BME280;27576;53.366;-1.498;2023-03-25T06:56:18;98162.56;;;6.92;100.00
41898;BME280;27576;53.366;-1.498;2023-03-25T06:58:44;98178.81;;;6.98;100.00
41898;BME280;27576;53.366;-1.498;2023-03-25T07:01:10;98218.28;;;6.99;100.00
41898;BME280;27576;53.366;-1.498;2023-03-25T07:03:36;98175.53;;;6.84;100.00
41898;BME280;27576;53.366;-1.498;2023-03-25T07:06:03;98188.31;;;6.93;100.00
41898;BME280;27576;53.366;-1.498;2023-03-25T07:08:29;98207.13;;;7.01;100.00
41898;BME280;27576;53.366;-1.498;2023-03-25T07:11:02;98198.53;;;7.01;100.00
41898;BME280;27576;53.366;-1.498;2023-03-25T07:13:28;98207.09;;;7.03;100.00
41898;BME280;27576;53.366;-1.498;2023-03-25T07:15:56;98224.19;;;7.13;100.00
41898;BME280;27576;53.366;-1.498;2023-03-25T07:18:21;98223.38;;;7.08;100.00
41898;BME280;27576;53.366;-1.498;2023-03-25T07:20:48;98196.91;;;6.91;100.00
41898;BME280;27576;53.366;-1.498;2023-03-25T07:23:13;98166.13;;;6.77;100.00
41898;BME280;27576;53.366;-1.498;2023-03-25T07:25:39;98232.78;;;7.13;100.00
41898;BME280;27576;53.366;-1.498;2023-03-25T07:28:04;98209.66;;;7.03;100.00
41898;BME280;27576;53.366;-1.498;2023-03-25T07:30:30;98231.94;;;7.10;100.00
41898;BME280;27576;53.366;-1.498;2023-03-25T07:32:55;98227.63;;;7.13;100.00
41898;BME280;27576;53.366;-1.498;2023-03-25T07:35:20;98218.16;;;7.14;100.00
41898;BME280;27576;53.366;-1.498;2023-03-25T07:37:46;98234.41;;;7.22;100.00
41898;BME280;27576;53.366;-1.498;2023-03-25T07:40:12;98264.28;;;7.42;100.00
41898;BME280;27576;53.366;-1.498;2023-03-25T07:42:37;98229.22;;;7.28;100.00
41898;BME280;27576;53.366;-1.498;2023-03-25T07:45:04;98211.31;;;7.13;100.00
41898;BME280;27576;53.366;-1.498;2023-03-25T07:47:30;98265.13;;;7.45;100.00
41898;BME280;27576;53.366;-1.498;2023-03-25T07:49:55;98242.03;;;7.34;100.00
41898;BME280;27576;53.366;-1.498;2023-03-25T07:52:20;98242.84;;;7.38;100.00
41898;BME280;27576;53.366;-1.498;2023-03-25T07:54:46;98239.44;;;7.36;100.00
41898;BME280;27576;53.366;-1.498;2023-03-25T07:57:11;98251.38;;;7.46;100.00
41898;BME280;27576;53.366;-1.498;2023-03-25T07:59:37;98259.13;;;7.45;100.00
41898;BME280;27576;53.366;-1.498;2023-03-25T08:02:02;98275.25;;;7.65;100.00
41898;BME280;27576;53.366;-1.498;2023-03-25T08:04:28;98282.09;;;7.68;100.00
41898;BME280;27576;53.366;-1.498;2023-03-25T08:06:53;98288.09;;;7.68;100.00
41898;BME280;27576;53.366;-1.498;2023-03-25T08:09:18;98283.72;;;7.76;100.00
41898;BME280;27576;53.366;-1.498;2023-03-25T08:11:44;98306.81;;;7.85;100.00
41898;BME280;27576;53.366;-1.498;2023-03-25T08:14:10;98318.78;;;7.93;100.00
41898;BME280;27576;53.366;-1.498;2023-03-25T08:16:35;98322.22;;;7.93;100.00
41898;BME280;27576;53.366;-1.498;2023-03-25T08:19:01;98362.53;;;8.06;100.00
41898;BME280;27576;53.366;-1.498;2023-03-25T08:21:26;98336.78;;;8.02;100.00
41898;BME280;27576;53.366;-1.498;2023-03-25T08:23:55;98325.63;;;7.97;100.00
41898;BME280;27576;53.366;-1.498;2023-03-25T08:26:27;98359.69;;;8.28;100.00
41898;BME280;27576;53.366;-1.498;2023-03-25T08:28:54;98374.31;;;8.29;100.00
41898;BME280;27576;53.366;-1.498;2023-03-25T08:31:22;98370.91;;;8.27;100.00
41898;BME280;27576;53.366;-1.498;2023-03-25T08:33:48;98377.72;;;8.32;100.00
41898;BME280;27576;53.366;-1.498;2023-03-25T08:36:13;98377.72;;;8.37;100.00
41898;BME280;27576;53.366;-1.498;2023-03-25T08:38:46;98385.44;;;8.35;100.00
41898;BME280;27576;53.366;-1.498;2023-03-25T08:41:12;98392.28;;;8.40;100.00
41898;BME280;27576;53.366;-1.498;2023-03-25T08:43:38;98395.66;;;8.45;100.00
41898;BME280;27576;53.366;-1.498;2023-03-25T08:46:04;98411.97;;;8.51;100.00
41898;BME280;27576;53.366;-1.498;2023-03-25T08:48:30;98392.25;;;8.46;100.00
41898;BME280;27576;53.366;-1.498;2023-03-25T08:50:55;98399.00;;;8.56;100.00
41898;BME280;27576;53.366;-1.498;2023-03-25T08:53:21;98440.81;;;8.87;100.00
41898;BME280;27576;53.366;-1.498;2023-03-25T08:55:50;98426.19;;;8.86;100.00
41898;BME280;27576;53.366;-1.498;2023-03-25T08:58:17;98428.69;;;8.94;100.00
41898;BME280;27576;53.366;-1.498;2023-03-25T09:00:43;98455.28;;;9.02;100.00
41898;BME280;27576;53.366;-1.498;2023-03-25T09:03:08;98457.88;;;8.99;100.00
41898;BME280;27576;53.366;-1.498;2023-03-25T09:05:36;98483.63;;;9.06;100.00
41898;BME280;27576;53.366;-1.498;2023-03-25T09:08:03;98495.72;;;9.04;100.00
41898;BME280;27576;53.366;-1.498;2023-03-25T09:10:28;98468.22;;;9.00;100.00
41898;BME280;27576;53.366;-1.498;2023-03-25T09:12:53;98499.03;;;9.14;100.00
41898;BME280;27576;53.366;-1.498;2023-03-25T09:15:19;98485.25;;;9.17;100.00
41898;BME280;27576;53.366;-1.498;2023-03-25T09:17:45;98513.69;;;9.14;100.00
41898;BME280;27576;53.366;-1.498;2023-03-25T09:20:11;98509.41;;;9.13;100.00
41898;BME280;27576;53.366;-1.498;2023-03-25T09:22:37;98534.34;;;9.15;100.00
41898;BME280;27576;53.366;-1.498;2023-03-25T09:25:03;98502.75;;;8.93;100.00
41898;BME280;27576;53.366;-1.498;2023-03-25T09:27:28;98519.91;;;8.97;100.00
41898;BME280;27576;53.366;-1.498;2023-03-25T09:29:54;98495.13;;;8.79;100.00
41898;BME280;27576;53.366;-1.498;2023-03-25T09:32:19;98533.75;;;8.90;100.00
41898;BME280;27576;53.366;-1.498;2023-03-25T09:34:45;98552.59;;;9.00;100.00
41898;BME280;27576;53.366;-1.498;2023-03-25T09:37:11;98526.13;;;8.79;100.00
41898;BME280;27576;53.366;-1.498;2023-03-25T09:39:36;98545.78;;;8.91;100.00
41898;BME280;27576;53.366;-1.498;2023-03-25T09:47:42;98566.91;;;9.31;100.00
41898;BME280;27576;53.366;-1.498;2023-03-25T09:50:13;98574.50;;;9.44;100.00
41898;BME280;27576;53.366;-1.498;2023-03-25T09:53:00;98572.59;;;9.59;100.00
41898;BME280;27576;53.366;-1.498;2023-03-25T09:55:29;98572.53;;;9.63;100.00
41898;BME280;27576;53.366;-1.498;2023-03-25T09:58:01;98575.28;;;9.52;100.00
41898;BME280;27576;53.366;-1.498;2023-03-25T10:00:29;98597.59;;;9.59;100.00
41898;BME280;27576;53.366;-1.498;2023-03-25T10:03:13;98593.19;;;9.66;100.00
41898;BME280;27576;53.366;-1.498;2023-03-25T10:08:55;98606.53;;;10.00;100.00
41898;BME280;27576;53.366;-1.498;2023-03-25T10:14:18;98607.72;;;10.39;100.00
41898;BME280;27576;53.366;-1.498;2023-03-25T10:17:11;98613.44;;;10.61;100.00
41898;BME280;27576;53.366;-1.498;2023-03-25T10:22:35;98603.97;;;10.59;100.00
41898;BME280;27576;53.366;-1.498;2023-03-25T10:25:14;98637.28;;;10.80;100.00
41898;BME280;27576;53.366;-1.498;2023-03-25T10:27:44;98642.34;;;10.88;100.00
41898;BME280;27576;53.366;-1.498;2023-03-25T10:30:16;98615.53;;;10.90;100.00
41898;BME280;27576;53.366;-1.498;2023-03-25T10:32:46;98652.09;;;11.23;100.00
41898;BME280;27576;53.366;-1.498;2023-03-25T10:35:34;98646.63;;;11.40;100.00
41898;BME280;27576;53.366;-1.498;2023-03-25T10:38:06;98661.28;;;11.41;100.00
41898;BME280;27576;53.366;-1.498;2023-03-25T10:40:38;98657.63;;;11.04;100.00
41898;BME280;27576;53.366;-1.498;2023-03-25T10:43:31;98686.00;;;11.12;100.00
41898;BME280;27576;53.366;-1.498;2023-03-25T10:46:25;98675.56;;;11.17;100.00
41898;BME280;27576;53.366;-1.498;2023-03-25T10:48:52;98686.38;;;11.40;100.00
41898;BME280;27576;53.366;-1.498;2023-03-25T10:51:24;98695.16;;;11.31;99.72
41898;BME280;27576;53.366;-1.498;2023-03-25T10:53:51;98681.63;;;11.14;95.81
41898;BME280;27576;53.366;-1.498;2023-03-25T10:58:54;98702.13;;;11.29;100.00
41898;BME280;27576;53.366;-1.498;2023-03-25T11:01:40;98704.56;;;11.37;97.65
41898;BME280;27576;53.366;-1.498;2023-03-25T11:04:13;98715.75;;;11.41;97.91
41898;BME280;27576;53.366;-1.498;2023-03-25T11:06:42;98690.91;;;11.27;96.13
41898;BME280;27576;53.366;-1.498;2023-03-25T11:09:13;98730.25;;;11.52;98.83
41898;BME280;27576;53.366;-1.498;2023-03-25T11:11:40;98733.03;;;11.42;98.83
41898;BME280;27576;53.366;-1.498;2023-03-25T11:14:06;98715.25;;;11.20;100.00
41898;BME280;27576;53.366;-1.498;2023-03-25T11:16:39;98751.31;;;11.34;98.48
41898;BME280;27576;53.366;-1.498;2023-03-25T11:19:06;98749.97;;;11.10;97.88
41898;BME280;27576;53.366;-1.498;2023-03-25T11:21:32;98742.59;;;10.86;98.76
41898;BME280;27576;53.366;-1.498;2023-03-25T11:23:59;98778.97;;;10.78;98.03
41898;BME280;27576;53.366;-1.498;2023-03-25T11:26:35;98778.28;;;10.64;100.00
41898;BME280;27576;53.366;-1.498;2023-03-25T11:31:34;98770.03;;;10.36;100.00
41898;BME280;27576;53.366;-1.498;2023-03-25T11:36:52;98789.97;;;10.94;100.00
41898;BME280;27576;53.366;-1.498;2023-03-25T11:39:38;98803.72;;;10.99;100.00
41898;BME280;27576;53.366;-1.498;2023-03-25T11:42:29;98808.72;;;11.11;100.00
41898;BME280;27576;53.366;-1.498;2023-03-25T11:44:57;98792.16;;;11.21;100.00
41898;BME280;27576;53.366;-1.498;2023-03-25T11:47:35;98802.16;;;11.43;100.00
41898;BME280;27576;53.366;-1.498;2023-03-25T11:50:02;98800.25;;;11.55;99.28
41898;BME280;27576;53.366;-1.498;2023-03-25T11:52:43;98805.22;;;11.68;99.32
41898;BME280;27576;53.366;-1.498;2023-03-25T11:55:22;98791.31;;;11.72;99.98
41898;BME280;27576;53.366;-1.498;2023-03-25T11:57:50;98776.69;;;11.68;98.79
41898;BME280;27576;53.366;-1.498;2023-03-25T12:02:46;98829.56;;;12.10;100.00
41898;BME280;27576;53.366;-1.498;2023-03-25T12:05:15;98832.03;;;12.16;97.76
41898;BME280;27576;53.366;-1.498;2023-03-25T12:07:42;98830.75;;;12.37;98.95
41898;BME280;27576;53.366;-1.498;2023-03-25T12:13:21;98822.13;;;13.55;94.06
41898;BME280;27576;53.366;-1.498;2023-03-25T12:16:18;98835.09;;;14.24;90.30
41898;BME280;27576;53.366;-1.498;2023-03-25T12:24:46;98834.41;;;14.49;81.08
41898;BME280;27576;53.366;-1.498;2023-03-25T12:32:53;98803.66;;;16.23;72.27
41898;BME280;27576;53.366;-1.498;2023-03-25T12:38:13;98831.34;;;16.77;76.54
41898;BME280;27576;53.366;-1.498;2023-03-25T12:40:47;98839.19;;;17.00;70.58
41898;BME280;27576;53.366;-1.498;2023-03-25T12:43:21;98835.06;;;16.46;70.33
41898;BME280;27576;53.366;-1.498;2023-03-25T12:48:37;98821.41;;;17.08;71.51
41898;BME280;27576;53.366;-1.498;2023-03-25T12:51:27;98832.34;;;16.49;59.41
41898;BME280;27576;53.366;-1.498;2023-03-25T12:57:27;98834.47;;;15.35;63.95
41898;BME280;27576;53.366;-1.498;2023-03-25T13:03:19;98840.06;;;15.22;67.11
41898;BME280;27576;53.366;-1.498;2023-03-25T13:08:46;98824.25;;;16.07;69.10
41898;BME280;27576;53.366;-1.498;2023-03-25T13:11:38;98813.97;;;16.76;66.58
41898;BME280;27576;53.366;-1.498;2023-03-25T13:14:15;98818.94;;;17.70;57.24
41898;BME280;27576;53.366;-1.498;2023-03-25T13:16:42;98838.00;;;18.36;55.84
41898;BME280;27576;53.366;-1.498;2023-03-25T13:19:19;98818.72;;;18.95;51.51
41898;BME280;27576;53.366;-1.498;2023-03-25T13:21:52;98824.00;;;20.02;58.04
41898;BME280;27576;53.366;-1.498;2023-03-25T13:24:26;98836.66;;;20.79;48.56
41898;BME280;27576;53.366;-1.498;2023-03-25T13:26:55;98812.84;;;20.65;48.40
41898;BME280;27576;53.366;-1.498;2023-03-25T13:29:32;98852.63;;;21.24;43.33
41898;BME280;27576;53.366;-1.498;2023-03-25T13:32:02;98840.81;;;21.31;46.81
41898;BME280;27576;53.366;-1.498;2023-03-25T13:34:55;98831.31;;;22.04;42.10
41898;BME280;27576;53.366;-1.498;2023-03-25T13:37:25;98849.28;;;22.14;46.94
41898;BME280;27576;53.366;-1.498;2023-03-25T13:39:55;98854.94;;;22.22;44.16
41898;BME280;27576;53.366;-1.498;2023-03-25T13:45:16;98858.22;;;21.18;42.36
41898;BME280;27576;53.366;-1.498;2023-03-25T13:47:47;98864.59;;;20.49;46.60
41898;BME280;27576;53.366;-1.498;2023-03-25T13:50:26;98855.81;;;20.31;45.30
41898;BME280;27576;53.366;-1.498;2023-03-25T13:53:06;98850.50;;;20.50;45.66
41898;BME280;27576;53.366;-1.498;2023-03-25T13:55:37;98859.53;;;20.44;42.96
41898;BME280;27576;53.366;-1.498;2023-03-25T13:58:12;98855.72;;;20.67;47.46
41898;BME280;27576;53.366;-1.498;2023-03-25T14:06:17;98862.03;;;22.36;40.16
41898;BME280;27576;53.366;-1.498;2023-03-25T14:11:48;98879.47;;;22.08;40.51
41898;BME280;27576;53.366;-1.498;2023-03-25T14:14:19;98859.13;;;22.10;39.32
41898;BME280;27576;53.366;-1.498;2023-03-25T14:16:52;98874.69;;;22.73;39.11
41898;BME280;27576;53.366;-1.498;2023-03-25T14:19:33;98863.09;;;23.05;36.28
41898;BME280;27576;53.366;-1.498;2023-03-25T14:22:07;98886.31;;;22.99;36.83
41898;BME280;27576;53.366;-1.498;2023-03-25T14:24:35;98895.94;;;21.97;37.23
41898;BME280;27576;53.366;-1.498;2023-03-25T14:27:04;98896.38;;;20.44;41.77
41898;BME280;27576;53.366;-1.498;2023-03-25T14:32:06;98906.69;;;19.04;47.24
41898;BME280;27576;53.366;-1.498;2023-03-25T14:34:48;98909.84;;;18.52;48.70
41898;BME280;27576;53.366;-1.498;2023-03-25T14:39:52;98899.28;;;18.33;47.28
41898;BME280;27576;53.366;-1.498;2023-03-25T14:45:31;98924.19;;;17.81;49.35
41898;BME280;27576;53.366;-1.498;2023-03-25T14:47:58;98924.41;;;18.80;51.32
41898;BME280;27576;53.366;-1.498;2023-03-25T14:52:50;98879.09;;;21.84;43.98
41898;BME280;27576;53.366;-1.498;2023-03-25T14:55:25;98914.78;;;22.80;41.05
41898;BME280;27576;53.366;-1.498;2023-03-25T14:57:58;98918.00;;;23.14;39.41